sensor_id;sensor_type;location;lat;lon;timestamp;pressure;altitude;pressure_sealevel;temperature;humidity
46129;BME280;31860;45.186;5.790;2022-12-29T00:02:19;99562.00;;;8.77;100.00
46129;BME280;31860;45.186;5.790;2022-12-29T00:04:45;99567.22;;;8.78;100.00
46129;BME280;31860;45.186;5.790;2022-12-29T00:07:10;99560.31;;;8.80;100.00
46129;BME280;31860;45.186;5.790;2022-12-29T00:09:36;99563.75;;;8.81;100.00
46129;BME280;31860;45.186;5.790;2022-12-29T00:12:02;99563.81;;;8.84;100.00
46129;BME280;31860;45.186;5.790;2022-12-29T00:14:28;99568.94;;;8.79;100.00
46129;BME280;31860;45.186;5.790;2022-12-29T00:17:13;99559.31;;;8.72;100.00
46129;BME280;31860;45.186;5.790;2022-12-29T00:19:38;99561.91;;;8.69;100.00
46129;BME280;31860;45.186;5.790;2022-12-29T00:22:23;99557.50;;;8.65;100.00
46129;BME280;31860;45.186;5.790;2022-12-29T00:25:12;99548.78;;;8.62;100.00
46129;BME280;31860;45.186;5.790;2022-12-29T00:27:56;99533.09;;;8.57;100.00
46129;BME280;31860;45.186;5.790;2022-12-29T00:30:41;99550.41;;;8.55;100.00
46129;BME280;31860;45.186;5.790;2022-12-29T00:33:28;99542.56;;;8.52;100.00
46129;BME280;31860;45.186;5.790;2022-12-29T00:36:31;99544.28;;;8.51;100.00
46129;BME280;31860;45.186;5.790;2022-12-29T00:39:13;99538.19;;;8.51;100.00
46129;BME280;31860;45.186;5.790;2022-12-29T00:42:08;99527.78;;;8.51;100.00
46129;BME280;31860;45.186;5.790;2022-12-29T00:45:03;99528.66;;;8.50;100.00
46129;BME280;31860;45.186;5.790;2022-12-29T00:47:28;99525.28;;;8.57;100.00
46129;BME280;31860;45.186;5.790;2022-12-29T00:49:53;99522.69;;;8.58;100.00
46129;BME280;31860;45.186;5.790;2022-12-29T00:52:19;99517.47;;;8.57;100.00
46129;BME280;31860;45.186;5.790;2022-12-29T00:54:44;99524.38;;;8.53;100.00
46129;BME280;31860;45.186;5.790;2022-12-29T00:57:10;99521.78;;;8.55;100.00
46129;BME280;31860;45.186;5.790;2022-12-29T00:59:37;99516.56;;;8.53;100.00
46129;BME280;31860;45.186;5.790;2022-12-29T01:02:02;99520.00;;;8.52;100.00
46129;BME280;31860;45.186;5.790;2022-12-29T01:04:28;99513.88;;;8.47;100.00
46129;BME280;31860;45.186;5.790;2022-12-29T01:06:53;99511.28;;;8.50;100.00
46129;BME280;31860;45.186;5.790;2022-12-29T01:09:19;99516.56;;;8.55;100.00
46129;BME280;31860;45.186;5.790;2022-12-29T01:12:03;99514.84;;;8.57;100.00
46129;BME280;31860;45.186;5.790;2022-12-29T01:14:29;99526.94;;;8.52;100.00
46129;BME280;31860;45.186;5.790;2022-12-29T01:16:55;99513.94;;;8.53;100.00
46129;BME280;31860;45.186;5.790;2022-12-29T01:19:21;99524.28;;;8.49;100.00
46129;BME280;31860;45.186;5.790;2022-12-29T01:21:47;99531.22;;;8.48;100.00
46129;BME280;31860;45.186;5.790;2022-12-29T01:24:14;99543.31;;;8.45;100.00
46129;BME280;31860;45.186;5.790;2022-12-29T01:26:40;99533.72;;;8.41;100.00
46129;BME280;31860;45.186;5.790;2022-12-29T01:29:05;99523.28;;;8.38;100.00
46129;BME280;31860;45.186;5.790;2022-12-29T01:31:31;99532.75;;;8.33;100.00
46129;BME280;31860;45.186;5.790;2022-12-29T01:33:56;99524.94;;;8.31;100.00
46129;BME280;31860;45.186;5.790;2022-12-29T01:36:22;99533.53;;;8.27;100.00
46129;BME280;31860;45.186;5.790;2022-12-29T01:38:47;99531.75;;;8.25;100.00
46129;BME280;31860;45.186;5.790;2022-12-29T01:41:14;99539.44;;;8.20;100.00
46129;BME280;31860;45.186;5.790;2022-12-29T01:43:44;99538.59;;;8.20;100.00
46129;BME280;31860;45.186;5.790;2022-12-29T01:46:48;99539.44;;;8.19;100.00
46129;BME280;31860;45.186;5.790;2022-12-29T01:49:20;99538.56;;;8.18;100.00
46129;BME280;31860;45.186;5.790;2022-12-29T01:54:44;99537.69;;;8.16;100.00
46129;BME280;31860;45.186;5.790;2022-12-29T01:57:16;99542.00;;;8.16;100.00
46129;BME280;31860;45.186;5.790;2022-12-29T01:59:52;99542.88;;;8.16;100.00
46129;BME280;31860;45.186;5.790;2022-12-29T02:02:19;99544.59;;;8.16;100.00
46129;BME280;31860;45.186;5.790;2022-12-29T02:04:44;99543.75;;;8.17;100.00
46129;BME280;31860;45.186;5.790;2022-12-29T02:07:15;99549.84;;;8.19;100.00
46129;BME280;31860;45.186;5.790;2022-12-29T02:09:42;99540.28;;;8.16;100.00
46129;BME280;31860;45.186;5.790;2022-12-29T02:12:09;99535.03;;;8.15;100.00
46129;BME280;31860;45.186;5.790;2022-12-29T02:14:35;99536.72;;;8.13;100.00
46129;BME280;31860;45.186;5.790;2022-12-29T02:17:29;99524.59;;;8.12;100.00
46129;BME280;31860;45.186;5.790;2022-12-29T02:30:42;99532.31;;;8.06;100.00
46129;BME280;31860;45.186;5.790;2022-12-29T02:36:33;99514.03;;;8.01;100.00
46129;BME280;31860;45.186;5.790;2022-12-29T02:39:04;99507.09;;;8.02;100.00
46129;BME280;31860;45.186;5.790;2022-12-29T02:41:34;99501.94;;;8.05;100.00
46129;BME280;31860;45.186;5.790;2022-12-29T02:44:23;99497.59;;;8.04;100.00
46129;BME280;31860;45.186;5.790;2022-12-29T02:47:03;99495.06;;;8.08;100.00
46129;BME280;31860;45.186;5.790;2022-12-29T02:49:59;99495.09;;;8.11;100.00
46129;BME280;31860;45.186;5.790;2022-12-29T02:52:30;99494.31;;;8.18;100.00
46129;BME280;31860;45.186;5.790;2022-12-29T02:54:58;99480.50;;;8.22;100.00
46129;BME280;31860;45.186;5.790;2022-12-29T02:59:57;99475.44;;;8.28;100.00
46129;BME280;31860;45.186;5.790;2022-12-29T03:13:48;99456.41;;;8.32;100.00
46129;BME280;31860;45.186;5.790;2022-12-29T03:17:00;99464.19;;;8.31;100.00
46129;BME280;31860;45.186;5.790;2022-12-29T03:19:35;99466.81;;;8.32;100.00
46129;BME280;31860;45.186;5.790;2022-12-29T03:22:04;99456.41;;;8.34;100.00
46129;BME280;31860;45.186;5.790;2022-12-29T03:24:52;99463.44;;;8.39;100.00
46129;BME280;31860;45.186;5.790;2022-12-29T03:27:27;99463.50;;;8.42;100.00
46129;BME280;31860;45.186;5.790;2022-12-29T03:30:04;99447.88;;;8.42;100.00
46129;BME280;31860;45.186;5.790;2022-12-29T03:32:37;99465.22;;;8.45;100.00
46129;BME280;31860;45.186;5.790;2022-12-29T03:35:05;99459.22;;;8.49;100.00
46129;BME280;31860;45.186;5.790;2022-12-29T03:37:37;99447.91;;;8.48;100.00
46129;BME280;31860;45.186;5.790;2022-12-29T03:40:05;99470.53;;;8.51;100.00
46129;BME280;31860;45.186;5.790;2022-12-29T03:42:34;99472.31;;;8.55;100.00
46129;BME280;31860;45.186;5.790;2022-12-29T03:45:01;99467.09;;;8.55;100.00
46129;BME280;31860;45.186;5.790;2022-12-29T03:47:26;99464.50;;;8.55;100.00
46129;BME280;31860;45.186;5.790;2022-12-29T03:49:52;99470.59;;;8.54;100.00
46129;BME280;31860;45.186;5.790;2022-12-29T03:52:18;99462.78;;;8.54;100.00
46129;BME280;31860;45.186;5.790;2022-12-29T03:54:44;99461.03;;;8.54;100.00
46129;BME280;31860;45.186;5.790;2022-12-29T03:57:10;99448.88;;;8.55;100.00
46129;BME280;31860;45.186;5.790;2022-12-29T03:59:36;99450.63;;;8.56;100.00
46129;BME280;31860;45.186;5.790;2022-12-29T04:02:01;99465.41;;;8.58;100.00
46129;BME280;31860;45.186;5.790;2022-12-29T04:04:27;99476.72;;;8.60;100.00
46129;BME280;31860;45.186;5.790;2022-12-29T04:06:53;99472.44;;;8.66;100.00
46129;BME280;31860;45.186;5.790;2022-12-29T04:09:18;99478.56;;;8.69;100.00
46129;BME280;31860;45.186;5.790;2022-12-29T04:11:43;99473.38;;;8.71;100.00
46129;BME280;31860;45.186;5.790;2022-12-29T04:14:09;99483.81;;;8.74;100.00
46129;BME280;31860;45.186;5.790;2022-12-29T04:16:34;99494.31;;;8.78;100.00
46129;BME280;31860;45.186;5.790;2022-12-29T04:19:01;99494.31;;;8.80;100.00
46129;BME280;31860;45.186;5.790;2022-12-29T04:21:27;99492.59;;;8.80;100.00
46129;BME280;31860;45.186;5.790;2022-12-29T04:23:52;99503.03;;;8.83;100.00
46129;BME280;31860;45.186;5.790;2022-12-29T04:26:17;99496.09;;;8.82;100.00
46129;BME280;31860;45.186;5.790;2022-12-29T04:28:43;99486.50;;;8.81;100.00
46129;BME280;31860;45.186;5.790;2022-12-29T04:31:08;99490.84;;;8.81;100.00
46129;BME280;31860;45.186;5.790;2022-12-29T04:33:34;99490.88;;;8.82;100.00
46129;BME280;31860;45.186;5.790;2022-12-29T04:35:59;99493.50;;;8.85;100.00
46129;BME280;31860;45.186;5.790;2022-12-29T04:38:25;99495.25;;;8.86;100.00
46129;BME280;31860;45.186;5.790;2022-12-29T04:40:50;99494.38;;;8.86;100.00
46129;BME280;31860;45.186;5.790;2022-12-29T04:43:16;99490.03;;;8.85;100.00
46129;BME280;31860;45.186;5.790;2022-12-29T04:45:47;99499.59;;;8.84;100.00
46129;BME280;31860;45.186;5.790;2022-12-29T04:48:12;99496.91;;;8.80;100.00
46129;BME280;31860;45.186;5.790;2022-12-29T04:50:39;99499.53;;;8.81;100.00
46129;BME280;31860;45.186;5.790;2022-12-29T04:53:05;99490.91;;;8.84;100.00
46129;BME280;31860;45.186;5.790;2022-12-29T04:55:30;99495.22;;;8.82;100.00
46129;BME280;31860;45.186;5.790;2022-12-29T04:57:56;99498.66;;;8.81;100.00
46129;BME280;31860;45.186;5.790;2022-12-29T05:00:22;99495.19;;;8.80;100.00
46129;BME280;31860;45.186;5.790;2022-12-29T05:02:48;99496.91;;;8.80;100.00
46129;BME280;31860;45.186;5.790;2022-12-29T05:05:13;99501.25;;;8.79;100.00
46129;BME280;31860;45.186;5.790;2022-12-29T05:07:38;99496.91;;;8.80;100.00
46129;BME280;31860;45.186;5.790;2022-12-29T05:10:04;99483.00;;;8.78;100.00
46129;BME280;31860;45.186;5.790;2022-12-29T05:12:35;99499.50;;;8.77;100.00
46129;BME280;31860;45.186;5.790;2022-12-29T05:15:01;99482.09;;;8.76;100.00
46129;BME280;31860;45.186;5.790;2022-12-29T05:17:30;99489.91;;;8.76;100.00
46129;BME280;31860;45.186;5.790;2022-12-29T05:19:55;99499.50;;;8.77;100.00
46129;BME280;31860;45.186;5.790;2022-12-29T05:22:21;99504.72;;;8.78;100.00
46129;BME280;31860;45.186;5.790;2022-12-29T05:24:46;99489.09;;;8.77;100.00
46129;BME280;31860;45.186;5.790;2022-12-29T05:27:12;99501.22;;;8.76;100.00
46129;BME280;31860;45.186;5.790;2022-12-29T05:29:37;99493.41;;;8.75;100.00
46129;BME280;31860;45.186;5.790;2022-12-29T05:32:03;99491.63;;;8.72;100.00
46129;BME280;31860;45.186;5.790;2022-12-29T05:34:29;99498.59;;;8.75;100.00
46129;BME280;31860;45.186;5.790;2022-12-29T05:36:54;99501.22;;;8.76;100.00
46129;BME280;31860;45.186;5.790;2022-12-29T05:39:19;99489.94;;;8.79;100.00
46129;BME280;31860;45.186;5.790;2022-12-29T05:41:45;99488.22;;;8.78;100.00
46129;BME280;31860;45.186;5.790;2022-12-29T05:44:11;99490.81;;;8.78;100.00
46129;BME280;31860;45.186;5.790;2022-12-29T05:46:37;99491.69;;;8.77;100.00
46129;BME280;31860;45.186;5.790;2022-12-29T05:49:02;99497.72;;;8.76;100.00
46129;BME280;31860;45.186;5.790;2022-12-29T05:51:28;99499.47;;;8.75;100.00
46129;BME280;31860;45.186;5.790;2022-12-29T05:53:53;99496.03;;;8.78;100.00
46129;BME280;31860;45.186;5.790;2022-12-29T05:56:19;99489.09;;;8.78;100.00
46129;BME280;31860;45.186;5.790;2022-12-29T05:58:44;99475.19;;;8.78;100.00
46129;BME280;31860;45.186;5.790;2022-12-29T06:01:10;99483.00;;;8.78;100.00
46129;BME280;31860;45.186;5.790;2022-12-29T06:03:35;99488.19;;;8.76;100.00
46129;BME280;31860;45.186;5.790;2022-12-29T06:06:00;99490.81;;;8.79;100.00
46129;BME280;31860;45.186;5.790;2022-12-29T06:08:26;99485.63;;;8.79;100.00
46129;BME280;31860;45.186;5.790;2022-12-29T06:10:51;99487.31;;;8.77;100.00
46129;BME280;31860;45.186;5.790;2022-12-29T06:13:17;99493.41;;;8.78;100.00
46129;BME280;31860;45.186;5.790;2022-12-29T06:15:42;99499.47;;;8.75;100.00
46129;BME280;31860;45.186;5.790;2022-12-29T06:18:07;99494.28;;;8.77;100.00
46129;BME280;31860;45.186;5.790;2022-12-29T06:20:33;99502.94;;;8.76;100.00
46129;BME280;31860;45.186;5.790;2022-12-29T06:22:58;99500.34;;;8.76;100.00
46129;BME280;31860;45.186;5.790;2022-12-29T06:25:24;99491.69;;;8.77;100.00
46129;BME280;31860;45.186;5.790;2022-12-29T06:27:49;99501.22;;;8.76;100.00
46129;BME280;31860;45.186;5.790;2022-12-29T06:30:14;99492.53;;;8.77;100.00
46129;BME280;31860;45.186;5.790;2022-12-29T06:32:41;99489.09;;;8.77;100.00
46129;BME280;31860;45.186;5.790;2022-12-29T06:35:06;99496.00;;;8.76;100.00
46129;BME280;31860;45.186;5.790;2022-12-29T06:37:32;99492.56;;;8.79;100.00
46129;BME280;31860;45.186;5.790;2022-12-29T06:39:58;99493.41;;;8.78;100.00
46129;BME280;31860;45.186;5.790;2022-12-29T06:42:23;99503.84;;;8.78;100.00
46129;BME280;31860;45.186;5.790;2022-12-29T06:44:48;99510.78;;;8.79;100.00
46129;BME280;31860;45.186;5.790;2022-12-29T06:47:14;99525.53;;;8.77;100.00
46129;BME280;31860;45.186;5.790;2022-12-29T06:49:40;99525.53;;;8.77;100.00
46129;BME280;31860;45.186;5.790;2022-12-29T06:52:06;99526.38;;;8.77;100.00
46129;BME280;31860;45.186;5.790;2022-12-29T06:54:31;99534.25;;;8.80;100.00
46129;BME280;31860;45.186;5.790;2022-12-29T06:56:57;99535.16;;;8.84;100.00
46129;BME280;31860;45.186;5.790;2022-12-29T06:59:23;99523.88;;;8.86;100.00
46129;BME280;31860;45.186;5.790;2022-12-29T07:01:49;99526.50;;;8.86;100.00
46129;BME280;31860;45.186;5.790;2022-12-29T07:04:15;99529.16;;;8.89;100.00
46129;BME280;31860;45.186;5.790;2022-12-29T07:06:40;99522.25;;;8.91;100.00
46129;BME280;31860;45.186;5.790;2022-12-29T07:09:07;99523.97;;;8.94;100.00
46129;BME280;31860;45.186;5.790;2022-12-29T07:11:33;99512.72;;;8.96;100.00
46129;BME280;31860;45.186;5.790;2022-12-29T07:13:59;99519.66;;;8.96;100.00
46129;BME280;31860;45.186;5.790;2022-12-29T07:16:24;99517.09;;;8.97;100.00
46129;BME280;31860;45.186;5.790;2022-12-29T07:18:50;99509.31;;;8.99;100.00
46129;BME280;31860;45.186;5.790;2022-12-29T07:21:15;99511.94;;;9.03;100.00
46129;BME280;31860;45.186;5.790;2022-12-29T07:23:41;99520.66;;;9.05;100.00
46129;BME280;31860;45.186;5.790;2022-12-29T07:26:08;99525.03;;;9.08;100.00
46129;BME280;31860;45.186;5.790;2022-12-29T07:28:35;99540.66;;;9.08;100.00
46129;BME280;31860;45.186;5.790;2022-12-29T07:31:01;99550.25;;;9.10;100.00
46129;BME280;31860;45.186;5.790;2022-12-29T07:33:30;99532.91;;;9.12;100.00
46129;BME280;31860;45.186;5.790;2022-12-29T07:35:56;99534.63;;;9.13;100.00
46129;BME280;31860;45.186;5.790;2022-12-29T07:38:22;99523.34;;;9.13;100.00
46129;BME280;31860;45.186;5.790;2022-12-29T07:40:47;99519.91;;;9.15;100.00
46129;BME280;31860;45.186;5.790;2022-12-29T07:43:13;99524.25;;;9.16;100.00
46129;BME280;31860;45.186;5.790;2022-12-29T07:45:38;99519.03;;;9.16;100.00
46129;BME280;31860;45.186;5.790;2022-12-29T07:48:04;99526.88;;;9.18;100.00
46129;BME280;31860;45.186;5.790;2022-12-29T07:50:33;99526.03;;;9.20;100.00
46129;BME280;31860;45.186;5.790;2022-12-29T07:52:58;99522.59;;;9.24;100.00
46129;BME280;31860;45.186;5.790;2022-12-29T07:55:24;99521.75;;;9.25;100.00
46129;BME280;31860;45.186;5.790;2022-12-29T07:57:49;99523.50;;;9.28;100.00
46129;BME280;31860;45.186;5.790;2022-12-29T08:00:15;99520.06;;;9.30;100.00
46129;BME280;31860;45.186;5.790;2022-12-29T08:02:40;99521.84;;;9.33;98.66
46129;BME280;31860;45.186;5.790;2022-12-29T08:05:06;99522.72;;;9.35;97.79
46129;BME280;31860;45.186;5.790;2022-12-29T08:07:31;99518.41;;;9.37;97.76
46129;BME280;31860;45.186;5.790;2022-12-29T08:09:57;99524.47;;;9.37;97.24
46129;BME280;31860;45.186;5.790;2022-12-29T08:12:23;99512.31;;;9.39;95.74
46129;BME280;31860;45.186;5.790;2022-12-29T08:14:48;99517.53;;;9.39;95.31
46129;BME280;31860;45.186;5.790;2022-12-29T08:17:13;99510.59;;;9.41;94.01
46129;BME280;31860;45.186;5.790;2022-12-29T08:19:39;99512.38;;;9.42;92.43
46129;BME280;31860;45.186;5.790;2022-12-29T08:22:05;99515.00;;;9.44;93.06
46129;BME280;31860;45.186;5.790;2022-12-29T08:24:30;99510.66;;;9.44;92.65
46129;BME280;31860;45.186;5.790;2022-12-29T08:26:56;99514.13;;;9.45;92.57
46129;BME280;31860;45.186;5.790;2022-12-29T08:29:21;99501.97;;;9.47;92.92
46129;BME280;31860;45.186;5.790;2022-12-29T08:31:47;99503.75;;;9.49;92.86
46129;BME280;31860;45.186;5.790;2022-12-29T08:34:13;99508.97;;;9.52;93.04
46129;BME280;31860;45.186;5.790;2022-12-29T08:36:39;99498.59;;;9.55;91.93
46129;BME280;31860;45.186;5.790;2022-12-29T08:39:04;99496.00;;;9.58;92.11
46129;BME280;31860;45.186;5.790;2022-12-29T08:41:30;99503.81;;;9.62;92.13
46129;BME280;31860;45.186;5.790;2022-12-29T08:43:55;99482.97;;;9.62;91.56
46129;BME280;31860;45.186;5.790;2022-12-29T08:46:21;99498.66;;;9.63;91.98
46129;BME280;31860;45.186;5.790;2022-12-29T08:48:46;99477.78;;;9.65;90.35
46129;BME280;31860;45.186;5.790;2022-12-29T08:51:12;99486.50;;;9.65;89.26
46129;BME280;31860;45.186;5.790;2022-12-29T08:53:38;99489.97;;;9.66;90.05
46129;BME280;31860;45.186;5.790;2022-12-29T08:56:03;99485.63;;;9.68;91.02
46129;BME280;31860;45.186;5.790;2022-12-29T08:58:30;99487.41;;;9.70;89.68
46129;BME280;31860;45.186;5.790;2022-12-29T09:00:57;99485.69;;;9.72;90.46
46129;BME280;31860;45.186;5.790;2022-12-29T09:03:24;99486.56;;;9.76;89.55
46129;BME280;31860;45.186;5.790;2022-12-29T09:05:50;99478.75;;;9.77;88.20
46129;BME280;31860;45.186;5.790;2022-12-29T09:08:17;99473.59;;;9.80;89.04
46129;BME280;31860;45.186;5.790;2022-12-29T09:10:43;99471.88;;;9.82;90.33
46129;BME280;31860;45.186;5.790;2022-12-29T09:13:09;99465.78;;;9.85;89.74
46129;BME280;31860;45.186;5.790;2022-12-29T09:15:35;99471.88;;;9.88;89.38
46129;BME280;31860;45.186;5.790;2022-12-29T09:18:00;99464.09;;;9.90;89.91
46129;BME280;31860;45.186;5.790;2022-12-29T09:20:25;99450.19;;;9.94;90.18
46129;BME280;31860;45.186;5.790;2022-12-29T09:22:51;99468.47;;;9.97;88.91
46129;BME280;31860;45.186;5.790;2022-12-29T09:25:17;99462.38;;;9.98;89.26
46129;BME280;31860;45.186;5.790;2022-12-29T09:27:42;99476.31;;;10.00;89.57
46129;BME280;31860;45.186;5.790;2022-12-29T09:30:11;99482.41;;;10.02;90.91
46129;BME280;31860;45.186;5.790;2022-12-29T09:32:37;99483.31;;;10.04;91.19
46129;BME280;31860;45.186;5.790;2022-12-29T09:35:03;99478.97;;;10.09;91.37
46129;BME280;31860;45.186;5.790;2022-12-29T09:37:28;99479.06;;;10.12;90.53
46129;BME280;31860;45.186;5.790;2022-12-29T09:39:54;99477.31;;;10.15;89.26
46129;BME280;31860;45.186;5.790;2022-12-29T09:42:25;99466.03;;;10.18;87.91
46129;BME280;31860;45.186;5.790;2022-12-29T09:45:14;99465.16;;;10.22;87.22
46129;BME280;31860;45.186;5.790;2022-12-29T09:47:42;99468.69;;;10.25;85.42
46129;BME280;31860;45.186;5.790;2022-12-29T09:50:20;99464.38;;;10.29;83.15
46129;BME280;31860;45.186;5.790;2022-12-29T09:52:57;99463.53;;;10.33;82.20
46129;BME280;31860;45.186;5.790;2022-12-29T09:55:35;99462.63;;;10.34;82.78
46129;BME280;31860;45.186;5.790;2022-12-29T09:58:26;99473.97;;;10.36;81.35
46129;BME280;31860;45.186;5.790;2022-12-29T10:01:00;99470.50;;;10.37;81.73
46129;BME280;31860;45.186;5.790;2022-12-29T10:03:36;99461.78;;;10.39;80.38
46129;BME280;31860;45.186;5.790;2022-12-29T10:06:12;99460.94;;;10.42;79.95
46129;BME280;31860;45.186;5.790;2022-12-29T10:08:48;99459.22;;;10.44;78.96
46129;BME280;31860;45.186;5.790;2022-12-29T10:17:08;99447.03;;;10.49;78.85
46129;BME280;31860;45.186;5.790;2022-12-29T10:19:57;99450.56;;;10.57;79.41
46129;BME280;31860;45.186;5.790;2022-12-29T10:22:35;99437.53;;;10.65;80.36
46129;BME280;31860;45.186;5.790;2022-12-29T10:25:16;99439.31;;;10.75;79.36
46129;BME280;31860;45.186;5.790;2022-12-29T10:27:45;99431.50;;;10.84;78.78
46129;BME280;31860;45.186;5.790;2022-12-29T10:30:13;99418.47;;;10.93;77.47
46129;BME280;31860;45.186;5.790;2022-12-29T10:32:44;99416.72;;;11.02;76.80
46129;BME280;31860;45.186;5.790;2022-12-29T10:35:52;99406.28;;;11.14;76.93
46129;BME280;31860;45.186;5.790;2022-12-29T10:40:43;99404.56;;;11.36;74.50
46129;BME280;31860;45.186;5.790;2022-12-29T10:43:28;99396.69;;;11.46;72.93
46129;BME280;31860;45.186;5.790;2022-12-29T10:46:07;99388.00;;;11.55;72.05
46129;BME280;31860;45.186;5.790;2022-12-29T10:48:35;99378.41;;;11.63;72.21
46129;BME280;31860;45.186;5.790;2022-12-29T10:51:02;99374.94;;;11.70;71.42
46129;BME280;31860;45.186;5.790;2022-12-29T10:53:42;99373.16;;;11.77;69.89
46129;BME280;31860;45.186;5.790;2022-12-29T10:56:35;99361.78;;;11.82;69.78
46129;BME280;31860;45.186;5.790;2022-12-29T10:59:27;99360.06;;;11.87;70.01
46129;BME280;31860;45.186;5.790;2022-12-29T11:07:34;99338.22;;;11.94;71.56
46129;BME280;31860;45.186;5.790;2022-12-29T11:12:59;99335.59;;;11.97;70.74
46129;BME280;31860;45.186;5.790;2022-12-29T11:15:24;99328.59;;;11.99;71.65
46129;BME280;31860;45.186;5.790;2022-12-29T11:22:54;99311.13;;;12.07;72.49
46129;BME280;31860;45.186;5.790;2022-12-29T11:25:19;99294.53;;;12.10;72.37
46129;BME280;31860;45.186;5.790;2022-12-29T11:30:28;99298.00;;;12.13;72.67
46129;BME280;31860;45.186;5.790;2022-12-29T11:32:56;99288.41;;;12.14;72.40
46129;BME280;31860;45.186;5.790;2022-12-29T11:35:40;99284.03;;;12.16;72.12
46129;BME280;31860;45.186;5.790;2022-12-29T11:38:16;99291.00;;;12.18;70.90
46129;BME280;31860;45.186;5.790;2022-12-29T11:40:44;99280.53;;;12.18;73.53
46129;BME280;31860;45.186;5.790;2022-12-29T11:43:25;99276.13;;;12.22;74.34
46129;BME280;31860;45.186;5.790;2022-12-29T11:45:52;99264.78;;;12.24;74.80
46129;BME280;31860;45.186;5.790;2022-12-29T11:48:20;99263.88;;;12.28;74.80
46129;BME280;31860;45.186;5.790;2022-12-29T11:50:55;99257.75;;;12.32;74.23
46129;BME280;31860;45.186;5.790;2022-12-29T11:53:24;99258.59;;;12.36;72.67
46129;BME280;31860;45.186;5.790;2022-12-29T11:55:53;99249.84;;;12.42;74.55
46129;BME280;31860;45.186;5.790;2022-12-29T11:58:19;99247.19;;;12.48;74.94
46129;BME280;31860;45.186;5.790;2022-12-29T12:00:45;99238.38;;;12.55;74.72
46129;BME280;31860;45.186;5.790;2022-12-29T12:03:21;99235.72;;;12.62;74.67
46129;BME280;31860;45.186;5.790;2022-12-29T12:05:55;99231.31;;;12.69;74.98
46129;BME280;31860;45.186;5.790;2022-12-29T12:08:38;99222.50;;;12.76;73.73
46129;BME280;31860;45.186;5.790;2022-12-29T12:11:26;99224.19;;;12.81;73.33
46129;BME280;31860;45.186;5.790;2022-12-29T12:14:16;99216.31;;;12.84;73.19
46129;BME280;31860;45.186;5.790;2022-12-29T12:16:50;99213.69;;;12.86;73.91
46129;BME280;31860;45.186;5.790;2022-12-29T12:19:59;99214.50;;;12.91;72.25
46129;BME280;31860;45.186;5.790;2022-12-29T12:25:02;99203.91;;;13.01;72.61
46129;BME280;31860;45.186;5.790;2022-12-29T12:27:38;99202.16;;;13.08;72.68
46129;BME280;31860;45.186;5.790;2022-12-29T12:30:16;99203.81;;;13.15;72.29
46129;BME280;31860;45.186;5.790;2022-12-29T12:32:56;99193.28;;;13.19;72.04
46129;BME280;31860;45.186;5.790;2022-12-29T12:41:10;99192.97;;;13.47;71.79
46129;BME280;31860;45.186;5.790;2022-12-29T12:43:37;99197.22;;;13.57;72.04
46129;BME280;31860;45.186;5.790;2022-12-29T12:51:39;99188.03;;;13.91;70.17
46129;BME280;31860;45.186;5.790;2022-12-29T12:57:20;99168.44;;;14.13;68.12
46129;BME280;31860;45.186;5.790;2022-12-29T13:00:12;99166.56;;;14.22;67.28
46129;BME280;31860;45.186;5.790;2022-12-29T13:19:32;99133.03;;;14.40;65.72
46129;BME280;31860;45.186;5.790;2022-12-29T13:22:20;99129.53;;;14.39;66.59
46129;BME280;31860;45.186;5.790;2022-12-29T13:27:58;99127.00;;;14.33;66.35
46129;BME280;31860;45.186;5.790;2022-12-29T13:30:40;99117.47;;;14.29;66.36
46129;BME280;31860;45.186;5.790;2022-12-29T13:33:30;99112.22;;;14.24;66.18
46129;BME280;31860;45.186;5.790;2022-12-29T13:38:44;99116.75;;;14.15;66.63
46129;BME280;31860;45.186;5.790;2022-12-29T13:41:19;99117.72;;;14.09;67.13
46129;BME280;31860;45.186;5.790;2022-12-29T13:43:47;99122.19;;;14.04;68.15
46129;BME280;31860;45.186;5.790;2022-12-29T13:46:22;99117.88;;;14.00;69.30
46129;BME280;31860;45.186;5.790;2022-12-29T13:49:33;99118.84;;;13.95;69.93
46129;BME280;31860;45.186;5.790;2022-12-29T13:51:57;99122.38;;;13.91;71.10
46129;BME280;31860;45.186;5.790;2022-12-29T13:54:44;99124.19;;;13.87;70.88
46129;BME280;31860;45.186;5.790;2022-12-29T14:02:50;99117.28;;;13.82;74.18
46129;BME280;31860;45.186;5.790;2022-12-29T14:07:56;99123.38;;;13.82;75.61
46129;BME280;31860;45.186;5.790;2022-12-29T14:10:35;99118.19;;;13.79;76.33
46129;BME280;31860;45.186;5.790;2022-12-29T14:13:23;99113.81;;;13.80;77.27
46129;BME280;31860;45.186;5.790;2022-12-29T14:15:54;99115.59;;;13.78;78.29
46129;BME280;31860;45.186;5.790;2022-12-29T14:18:25;99109.50;;;13.76;78.53
46129;BME280;31860;45.186;5.790;2022-12-29T14:21:02;99102.47;;;13.75;77.06
46129;BME280;31860;45.186;5.790;2022-12-29T14:23:39;99105.16;;;13.72;77.39
46129;BME280;31860;45.186;5.790;2022-12-29T14:28:54;99107.00;;;13.67;80.98
46129;BME280;31860;45.186;5.790;2022-12-29T14:31:33;99106.13;;;13.66;82.09
46129;BME280;31860;45.186;5.790;2022-12-29T14:36:38;99125.44;;;13.61;82.82
46129;BME280;31860;45.186;5.790;2022-12-29T14:39:37;99119.38;;;13.57;84.39
46129;BME280;31860;45.186;5.790;2022-12-29T14:42:11;99120.28;;;13.55;85.35
46129;BME280;31860;45.186;5.790;2022-12-29T14:45:07;99111.53;;;13.53;87.96
46129;BME280;31860;45.186;5.790;2022-12-29T14:47:49;99118.56;;;13.51;88.91
46129;BME280;31860;45.186;5.790;2022-12-29T14:50:39;99117.75;;;13.47;90.14
46129;BME280;31860;45.186;5.790;2022-12-29T14:53:10;99125.63;;;13.46;90.06
46129;BME280;31860;45.186;5.790;2022-12-29T14:55:55;99123.03;;;13.43;90.06
46129;BME280;31860;45.186;5.790;2022-12-29T14:58:27;99116.06;;;13.42;90.26
46129;BME280;31860;45.186;5.790;2022-12-29T15:00:54;99123.97;;;13.40;90.39
46129;BME280;31860;45.186;5.790;2022-12-29T15:03:24;99127.47;;;13.39;89.83
46129;BME280;31860;45.186;5.790;2022-12-29T15:05:51;99133.63;;;13.37;89.14
46129;BME280;31860;45.186;5.790;2022-12-29T15:08:20;99131.00;;;13.37;89.42
46129;BME280;31860;45.186;5.790;2022-12-29T15:11:00;99146.75;;;13.35;90.88